Time;durP1;ratioP1;P1;durP2;ratioP2;P2;SDS_P1;SDS_P2;PMS_P1;PMS_P2;Temp;Humidity;BMP_temperature;BMP_pressure;BME280_temperature;BME280_humidity;BME280_pressure;Samples;Min_cycle;Max_cycle;Signal;HPM_P1;HPM_P2
2022/05/13 00:02:35;;;;;;;2.70;1.42;;;;;;;14.63;60.21;100170.28;10551963;28;20044;-82
2022/05/13 00:07:36;;;;;;;2.92;1.40;;;;;;;14.52;59.98;100172.59;10447869;28;20072;-80
2022/05/13 00:12:40;;;;;;;4.28;1.67;;;;;;;14.16;60.48;100167.09;10550247;28;20085;-79
2022/05/13 00:17:43;;;;;;;3.35;1.55;;;;;;;13.76;62.33;100174.13;10551323;28;20048;-81
2022/05/13 00:22:46;;;;;;;2.20;1.30;;;;;;;13.78;63.29;100172.28;10469199;28;20070;-83
2022/05/13 00:27:48;;;;;;;2.17;1.70;;;;;;;13.88;63.39;100178.03;10465981;28;20048;-83
2022/05/13 00:32:50;;;;;;;4.03;1.90;;;;;;;13.75;63.48;100174.19;10477093;28;20422;-79
2022/05/13 00:37:52;;;;;;;7.00;2.95;;;;;;;13.94;62.72;100159.25;10477412;28;20043;-81
2022/05/13 00:43:03;;;;;;;5.18;3.67;;;;;;;13.84;63.73;100160.59;10464804;28;20111;-81
2022/05/13 00:48:05;;;;;;;5.38;3.72;;;;;;;13.82;63.50;100158.03;10465518;28;20086;-82
2022/05/13 00:53:07;;;;;;;5.53;3.28;;;;;;;13.66;63.85;100151.69;10464549;28;20501;-82
2022/05/13 00:58:17;;;;;;;4.65;3.10;;;;;;;13.56;64.49;100143.28;10464465;28;20056;-82
2022/05/13 01:03:20;;;;;;;4.57;2.63;;;;;;;13.47;64.50;100148.97;10465048;28;20063;-82
2022/05/13 01:08:22;;;;;;;5.55;2.50;;;;;;;13.46;65.25;100143.72;10465058;28;20048;-82
2022/05/13 01:13:28;;;;;;;2.65;2.17;;;;;;;13.54;64.68;100134.56;10550125;28;20040;-80
2022/05/13 01:18:37;;;;;;;2.83;1.60;;;;;;;13.71;64.34;100140.91;10554636;28;20040;-79
2022/05/13 01:23:42;;;;;;;3.33;1.75;;;;;;;13.84;64.03;100137.66;10558114;28;20059;-83
2022/05/13 01:28:49;;;;;;;4.78;1.95;;;;;;;13.62;65.53;100140.38;10469739;28;20409;-81
2022/05/13 01:33:52;;;;;;;2.83;1.58;;;;;;;13.83;63.83;100138.59;10557379;28;20059;-80
2022/05/13 01:38:55;;;;;;;2.88;1.92;;;;;;;13.80;64.17;100133.44;10556641;28;20063;-81
2022/05/13 01:43:57;;;;;;;4.15;2.17;;;;;;;13.53;65.46;100138.13;10560249;28;20050;-81
2022/05/13 01:48:59;;;;;;;3.30;1.73;;;;;;;13.41;66.25;100141.28;10475026;28;20047;-80
2022/05/13 01:54:01;;;;;;;5.25;2.00;;;;;;;13.52;65.76;100139.06;10559780;28;20044;-81
2022/05/13 01:59:03;;;;;;;4.00;1.90;;;;;;;13.14;68.74;100137.97;10471404;28;20550;-81
2022/05/13 02:04:08;;;;;;;3.15;2.45;;;;;;;12.96;68.25;100146.63;10471172;28;20040;-82
2022/05/13 02:09:09;;;;;;;3.35;1.98;;;;;;;13.03;68.63;100148.09;10558591;28;20397;-80
2022/05/13 02:14:13;;;;;;;3.22;2.05;;;;;;;13.14;68.07;100144.09;10474435;28;20048;-81
2022/05/13 02:19:17;;;;;;;3.00;2.40;;;;;;;13.43;66.77;100138.59;10592002;28;20024;-80
2022/05/13 02:24:18;;;;;;;4.00;1.90;;;;;;;13.05;67.21;100133.06;10591412;28;20080;-78
2022/05/13 02:29:20;;;;;;;2.42;1.92;;;;;;;12.77;68.51;100136.78;10505093;28;20390;-80
2022/05/13 02:34:21;;;;;;;5.10;1.98;;;;;;;12.74;68.82;100128.13;10505315;28;20040;-81
2022/05/13 02:39:23;;;;;;;3.00;2.00;;;;;;;12.61;70.03;100130.38;10488828;28;20039;-80
2022/05/13 02:44:25;;;;;;;3.72;1.80;;;;;;;12.93;68.27;100121.22;10484634;28;20054;-81
2022/05/13 02:49:27;;;;;;;3.97;2.20;;;;;;;12.89;68.96;100124.91;10570403;28;20048;-81
2022/05/13 02:54:28;;;;;;;5.15;2.60;;;;;;;12.92;69.04;100131.84;10487412;28;20048;-80
2022/05/13 02:59:30;;;;;;;2.90;1.90;;;;;;;12.73;69.70;100124.66;10564666;28;20473;-81
2022/05/13 03:04:32;;;;;;;4.15;2.33;;;;;;;12.37;71.98;100117.22;10567826;28;20042;-80
2022/05/13 03:09:34;;;;;;;3.30;1.98;;;;;;;12.23;73.18;100116.91;10589991;28;20470;-80
2022/05/13 03:14:36;;;;;;;3.08;2.15;;;;;;;12.33;72.52;100120.03;10579402;28;20073;-80
2022/05/13 03:19:39;;;;;;;3.75;2.20;;;;;;;12.38;72.31;100112.81;10564537;28;20036;-79
2022/05/13 03:24:41;;;;;;;4.15;2.20;;;;;;;12.36;72.71;100119.94;10485460;28;20066;-80
2022/05/13 03:29:42;;;;;;;2.55;2.10;;;;;;;12.15;73.58;100118.09;10571075;28;20101;-81
2022/05/13 03:34:43;;;;;;;5.20;2.33;;;;;;;12.49;71.75;100126.47;10576452;28;20073;-80
2022/05/13 03:39:45;;;;;;;3.03;1.80;;;;;;;12.26;72.65;100118.53;10574803;28;20123;-80
2022/05/13 03:44:47;;;;;;;3.25;2.42;;;;;;;12.42;70.50;100111.78;10572079;28;20436;-80
2022/05/13 03:49:48;;;;;;;2.22;1.55;;;;;;;12.26;71.37;100110.63;10570774;28;20066;-80
2022/05/13 03:54:50;;;;;;;3.25;1.90;;;;;;;12.45;69.75;100116.09;10483608;28;20048;-80
2022/05/13 03:59:51;;;;;;;2.28;1.75;;;;;;;12.16;71.97;100112.75;10485241;28;20102;-80
2022/05/13 04:10:13;;;;;;;2.72;1.80;;;;;;;12.16;73.10;100106.63;10576044;28;20047;-80
2022/05/13 04:20:36;;;;;;;3.38;2.30;;;;;;;12.75;70.29;100120.19;10573595;28;20054;-80
2022/05/13 04:25:37;;;;;;;3.97;2.40;;;;;;;12.70;71.91;100129.19;10576856;28;20104;-81
2022/05/13 04:30:39;;;;;;;5.05;2.65;;;;;;;12.66;71.77;100117.91;10576768;28;20044;-79
2022/05/13 04:35:41;;;;;;;3.28;2.60;;;;;;;12.95;70.44;100122.03;10577239;28;20107;-80
2022/05/13 04:40:42;;;;;;;6.45;3.53;;;;;;;12.86;70.94;100123.25;10585123;28;20062;-81
2022/05/13 04:45:44;;;;;;;3.45;2.90;;;;;;;12.90;70.99;100131.03;10481506;28;20047;-80
2022/05/13 04:50:53;;;;;;;4.47;3.85;;;;;;;12.94;70.22;100132.66;10586283;28;20040;-79
2022/05/13 04:55:55;;;;;;;4.15;2.90;;;;;;;13.26;69.67;100131.38;10495549;28;20048;-80
2022/05/13 05:00:58;;;;;;;4.78;3.05;;;;;;;13.46;69.31;100136.69;10585949;28;20055;-81
2022/05/13 05:06:02;;;;;;;4.90;2.90;;;;;;;13.81;69.14;100131.66;10491884;28;20040;-80
2022/05/13 05:11:08;;;;;;;4.55;3.97;;;;;;;13.70;68.43;100133.91;10581974;28;20044;-79
2022/05/13 05:16:10;;;;;;;4.88;3.55;;;;;;;13.87;67.46;100120.84;10584106;28;20052;-79
2022/05/13 05:21:15;;;;;;;3.78;2.60;;;;;;;14.15;65.62;100131.03;10583577;28;20044;-80
2022/05/13 05:26:17;;;;;;;4.90;3.20;;;;;;;14.46;64.75;100129.63;10583723;28;20048;-79
2022/05/13 05:31:19;;;;;;;4.18;2.92;;;;;;;14.74;64.79;100124.81;10500540;28;20040;-80
2022/05/13 05:36:21;;;;;;;5.45;3.45;;;;;;;14.83;64.04;100134.09;10503870;28;20044;-80
2022/05/13 05:41:22;;;;;;;5.93;2.58;;;;;;;15.02;63.10;100136.72;10566712;28;20059;-81
2022/05/13 05:46:24;;;;;;;5.80;4.07;;;;;;;15.42;62.10;100132.13;10468942;28;20470;-80
2022/05/13 05:51:26;;;;;;;4.60;3.08;;;;;;;15.58;61.38;100128.63;10472977;28;20052;-80
2022/05/13 06:01:48;;;;;;;9.10;3.45;;;;;;;16.57;57.96;100113.69;10467656;28;20075;-81
2022/05/13 06:06:52;;;;;;;5.30;3.15;;;;;;;17.39;55.99;100105.47;10469290;28;20052;-80
2022/05/13 06:11:54;;;;;;;6.80;2.70;;;;;;;18.19;53.27;100116.66;10485921;28;20049;-81
2022/05/13 06:16:56;;;;;;;5.38;2.75;;;;;;;17.98;53.75;100117.03;10470074;28;20048;-81
2022/05/13 06:21:57;;;;;;;8.15;3.10;;;;;;;18.10;53.04;100126.91;10563859;28;20428;-80
2022/05/13 06:26:59;;;;;;;4.00;2.38;;;;;;;18.96;52.03;100121.53;10565114;28;20052;-80
2022/05/13 06:32:01;;;;;;;6.15;2.78;;;;;;;18.54;53.42;100122.44;10561426;28;20055;-81
2022/05/13 06:37:03;;;;;;;3.88;2.35;;;;;;;19.10;52.00;100121.47;10563486;28;20047;-80
2022/05/13 06:42:05;;;;;;;10.10;2.60;;;;;;;19.85;50.50;100113.78;10580635;28;20033;-80
2022/05/13 06:47:16;;;;;;;3.28;1.20;;;;;;;20.80;46.87;100104.38;10468377;28;20047;-80
2022/05/13 06:52:18;;;;;;;2.20;0.75;;;;;;;21.49;41.25;100107.28;10468254;28;20048;-81
2022/05/13 06:57:39;;;;;;;1.85;0.95;;;;;;;21.67;41.40;100113.06;10553601;28;20122;-80
2022/05/13 07:02:41;;;;;;;1.70;0.90;;;;;;;21.67;40.33;100116.59;10451902;28;20048;-81
2022/05/13 07:07:43;;;;;;;3.85;1.45;;;;;;;21.60;41.24;100109.13;10553288;28;20052;-82
2022/05/13 07:12:45;;;;;;;2.20;1.08;;;;;;;20.84;42.44;100115.69;10552351;28;20043;-80
2022/05/13 07:17:47;;;;;;;2.85;1.33;;;;;;;20.74;42.69;100112.00;10550782;28;20040;-80
2022/05/13 07:22:49;;;;;;;3.05;0.98;;;;;;;21.00;43.87;100108.25;10551953;28;20501;-79
2022/05/13 07:27:51;;;;;;;2.38;0.90;;;;;;;20.91;42.60;100106.28;10552603;28;20052;-79
2022/05/13 07:32:52;;;;;;;2.03;0.80;;;;;;;21.57;40.88;100109.38;10553370;28;20036;-80
2022/05/13 07:37:55;;;;;;;6.35;0.70;;;;;;;20.98;40.09;100107.50;10555378;28;20044;-81
2022/05/13 07:42:57;;;;;;;3.83;0.80;;;;;;;20.90;42.47;100104.56;10556291;28;20050;-82
2022/05/13 07:48:01;;;;;;;3.13;1.00;;;;;;;21.08;41.85;100107.72;10467186;28;20040;-81
2022/05/13 07:53:03;;;;;;;2.90;1.10;;;;;;;21.70;37.58;100099.47;10466398;28;20058;-81
2022/05/13 07:58:05;;;;;;;5.35;1.23;;;;;;;21.48;38.07;100099.41;10554193;28;20036;-80
2022/05/13 08:03:14;;;;;;;4.40;1.20;;;;;;;21.48;37.91;100108.28;10556459;28;20570;-82
2022/05/13 08:08:30;;;;;;;3.53;1.38;;;;;;;21.34;37.88;100087.06;10497609;22;20412;-79
2022/05/13 08:13:33;;;;;;;4.18;1.17;;;;;;;21.68;37.30;100079.97;10514547;28;20058;-79
2022/05/13 08:18:35;;;;;;;2.80;1.10;;;;;;;21.95;36.53;100097.53;10550219;28;20485;-79
2022/05/13 08:23:37;;;;;;;1.95;0.80;;;;;;;22.37;35.44;100094.19;10555624;28;20043;-80
2022/05/13 08:28:40;;;;;;;2.33;1.00;;;;;;;21.93;37.07;100092.31;10554322;28;20040;-79
2022/05/13 08:33:42;;;;;;;6.35;1.17;;;;;;;21.44;38.03;100098.78;10557046;28;20043;-78
2022/05/13 08:38:50;;;;;;;3.08;1.10;;;;;;;22.16;36.87;100099.41;10548926;28;20042;-80
2022/05/13 08:44:00;;;;;;;3.47;1.30;;;;;;;21.93;37.19;100111.03;10561237;28;20040;-78
2022/05/13 08:49:26;;;;;;;4.88;1.50;;;;;;;21.99;37.00;100096.31;10580541;28;20048;-78
2022/05/13 08:54:34;;;;;;;3.00;1.05;;;;;;;21.27;39.04;100093.81;10555129;28;20040;-78
2022/05/13 09:00:08;;;;;;;3.25;1.20;;;;;;;21.36;40.20;100091.31;10548694;28;20047;-79
2022/05/13 09:05:25;;;;;;;4.40;1.10;;;;;;;21.41;38.52;100099.00;10554471;28;20052;-79
2022/05/13 09:10:28;;;;;;;3.05;0.90;;;;;;;21.58;37.27;100111.09;10552883;28;20044;-79
2022/05/13 09:15:37;;;;;;;2.35;0.90;;;;;;;21.83;38.54;100110.06;10552560;28;20051;-79
2022/05/13 09:20:54;;;;;;;3.92;0.98;;;;;;;22.34;36.80;100112.31;10552953;28;20090;-79
2022/05/13 09:26:01;;;;;;;3.47;1.23;;;;;;;22.76;35.17;100101.81;10552338;28;20044;-80
2022/05/13 09:31:17;;;;;;;5.15;1.52;;;;;;;21.96;36.51;100092.09;10553190;28;20048;-80
2022/05/13 09:36:39;;;;;;;1.88;0.73;;;;;;;21.60;36.73;100102.00;10553812;28;20107;-80
2022/05/13 09:41:40;;;;;;;4.25;1.58;;;;;;;21.65;37.22;100120.38;10560104;28;20036;-80
2022/05/13 09:47:05;;;;;;;3.50;1.05;;;;;;;21.81;37.62;100102.13;10559249;28;20044;-80
2022/05/13 09:52:36;;;;;;;3.20;1.38;;;;;;;21.74;36.86;100105.44;10560093;28;20090;-80
2022/05/13 09:57:38;;;;;;;4.95;1.15;;;;;;;21.38;38.49;100094.75;10556772;28;20401;-80
2022/05/13 10:02:42;;;;;;;10.73;1.10;;;;;;;21.13;38.92;100084.16;10556885;28;20055;-80
2022/05/13 10:07:53;;;;;;;5.53;1.38;;;;;;;21.20;38.64;100085.38;10557651;28;20054;-80
2022/05/13 10:18:24;;;;;;;7.28;1.42;;;;;;;21.87;38.96;100074.06;10556586;28;20413;-80
2022/05/13 10:23:42;;;;;;;3.17;1.13;;;;;;;21.74;38.70;100076.84;10538308;28;20485;-80
2022/05/13 10:29:13;;;;;;;3.08;1.05;;;;;;;21.75;36.56;100083.91;10554447;28;20056;-80
2022/05/13 10:34:33;;;;;;;2.85;1.10;;;;;;;21.78;40.98;100083.66;10537473;28;20071;-79
2022/05/13 10:39:58;;;;;;;3.60;1.23;;;;;;;22.42;37.22;100088.47;10556396;28;20435;-81
2022/05/13 10:45:08;;;;;;;6.72;1.35;;;;;;;22.55;36.49;100078.47;10538471;28;20102;-80
2022/05/13 10:50:26;;;;;;;4.80;1.05;;;;;;;22.97;35.22;100067.06;10555056;28;20044;-80
2022/05/13 10:56:01;;;;;;;3.92;1.67;;;;;;;22.52;37.51;100076.03;10539478;28;20139;-80
2022/05/13 11:01:38;;;;;;;3.88;1.10;;;;;;;23.34;36.72;100059.47;10554292;28;20085;-80
2022/05/13 11:07:00;;;;;;;2.85;1.10;;;;;;;23.26;35.07;100060.13;10557129;28;20485;-79
2022/05/13 11:12:30;;;;;;;5.82;1.08;;;;;;;22.68;35.03;100059.56;10561834;28;20044;-79
2022/05/13 11:17:55;;;;;;;4.85;1.45;;;;;;;22.19;35.83;100054.66;10557081;28;20073;-79
2022/05/13 11:23:07;;;;;;;5.53;1.13;;;;;;;21.92;36.49;100064.72;10554899;28;20044;-80
2022/05/13 11:28:34;;;;;;;2.55;1.25;;;;;;;22.14;36.65;100055.88;10555304;28;20070;-81
2022/05/13 11:33:53;;;;;;;3.72;0.90;;;;;;;22.52;35.71;100051.06;10554893;28;20117;-80
2022/05/13 11:39:32;;;;;;;4.78;0.90;;;;;;;22.99;35.91;100046.34;10553699;28;20051;-80
2022/05/13 11:45:10;;;;;;;4.97;0.90;;;;;;;22.91;35.97;100045.16;10554053;28;20036;-80
2022/05/13 11:50:12;;;;;;;5.93;1.05;;;;;;;22.89;35.67;100039.06;10551346;28;20056;-79
2022/05/13 11:55:19;;;;;;;5.28;1.00;;;;;;;22.90;36.82;100037.25;10555171;28;20055;-80
2022/05/13 12:00:36;;;;;;;3.95;1.33;;;;;;;22.67;35.72;100039.13;10552617;28;20044;-80
2022/05/13 12:06:00;;;;;;;5.90;1.10;;;;;;;22.91;36.73;100039.78;10534530;28;20052;-80
2022/05/13 12:11:01;;;;;;;6.03;1.10;;;;;;;22.71;36.21;100051.28;10553126;28;20048;-80
2022/05/13 12:16:12;;;;;;;4.18;1.17;;;;;;;22.88;37.35;100040.00;10551968;28;20508;-80
2022/05/13 12:21:23;;;;;;;4.15;1.10;;;;;;;22.95;36.58;100043.06;10535924;28;20052;-80
2022/05/13 12:26:47;;;;;;;5.38;0.88;;;;;;;23.04;37.05;100036.94;10555125;28;20059;-80
2022/05/13 12:31:54;;;;;;;4.22;0.90;;;;;;;22.83;36.14;100031.50;10551208;28;20047;-79
2022/05/13 12:42:46;;;;;;;6.18;1.38;;;;;;;22.56;37.58;100039.97;10558972;28;20163;-78
2022/05/13 12:47:58;;;;;;;8.80;1.23;;;;;;;22.34;36.65;100040.00;10566997;28;20056;-79
2022/05/13 12:53:00;;;;;;;2.72;0.93;;;;;;;22.31;36.83;100041.13;10561153;28;20478;-79
2022/05/13 12:58:24;;;;;;;5.15;0.98;;;;;;;22.53;36.88;100045.56;10550832;28;20076;-78
2022/05/13 13:03:25;;;;;;;5.68;1.25;;;;;;;22.51;36.51;100049.38;10549573;28;20105;-79
2022/05/13 13:08:36;;;;;;;4.50;1.25;;;;;;;21.55;36.92;100047.13;10549835;28;20127;-79
2022/05/13 13:13:59;;;;;;;5.78;1.10;;;;;;;21.75;38.06;100057.13;10555941;28;20161;-79
2022/05/13 13:19:09;;;;;;;7.72;0.80;;;;;;;22.27;36.33;100057.53;10560112;28;20047;-79
2022/05/13 13:24:18;;;;;;;7.47;1.10;;;;;;;22.47;35.33;100062.16;10539173;28;20082;-79
2022/05/13 13:29:26;;;;;;;9.30;1.10;;;;;;;21.86;36.36;100067.00;10558593;28;20047;-79
2022/05/13 13:34:40;;;;;;;15.55;1.75;;;;;;;21.93;36.43;100068.22;10559906;28;20040;-79
2022/05/13 13:39:41;;;;;;;10.38;1.30;;;;;;;21.56;37.52;100063.06;10558898;28;20055;-79
2022/05/13 13:44:45;;;;;;;6.78;1.10;;;;;;;21.99;35.67;100072.25;10558959;28;20044;-80
2022/05/13 13:49:48;;;;;;;21.38;1.63;;;;;;;21.72;35.95;100086.78;10563878;28;20048;-80
2022/05/13 13:54:53;;;;;;;25.10;1.70;;;;;;;21.74;34.48;100086.69;10560549;28;20093;-80
2022/05/13 14:00:05;;;;;;;10.00;1.20;;;;;;;21.58;35.09;100105.75;10557819;28;20054;-79
2022/05/13 14:05:19;;;;;;;6.95;1.05;;;;;;;21.36;35.17;100098.50;10579976;22;20044;-80
2022/05/13 14:10:28;;;;;;;5.63;1.20;;;;;;;21.12;34.59;100102.03;10540432;28;20051;-80
2022/05/13 14:15:33;;;;;;;13.02;1.50;;;;;;;21.03;34.19;100109.84;10542014;28;20051;-80
2022/05/13 14:20:37;;;;;;;11.17;1.30;;;;;;;20.61;34.67;100120.88;10588218;28;20055;-81
2022/05/13 14:25:47;;;;;;;5.05;1.10;;;;;;;20.71;34.79;100110.38;10591696;28;20052;-81
2022/05/13 14:30:58;;;;;;;3.50;0.88;;;;;;;20.96;34.07;100116.63;10535649;28;20036;-81
2022/05/13 14:36:05;;;;;;;7.35;0.88;;;;;;;20.94;35.03;100132.78;10552117;28;20048;-82
2022/05/13 14:41:07;;;;;;;8.38;1.20;;;;;;;20.64;35.67;100146.53;10565259;28;20044;-80
2022/05/13 14:46:13;;;;;;;2.20;0.95;;;;;;;20.77;34.81;100141.16;10561428;28;20048;-82
2022/05/13 14:51:22;;;;;;;29.73;2.42;;;;;;;20.58;34.20;100163.81;10567311;28;20040;-80
2022/05/13 14:56:26;;;;;;;16.98;3.08;;;;;;;20.16;35.76;100151.69;10531202;28;20135;-81
2022/05/13 15:01:40;;;;;;;4.30;1.00;;;;;;;20.28;34.70;100166.84;10544476;28;20052;-81
2022/05/13 15:06:47;;;;;;;4.65;0.88;;;;;;;20.01;34.58;100176.72;10568825;28;20058;-80
2022/05/13 15:11:51;;;;;;;5.03;1.40;;;;;;;19.79;35.05;100180.00;10584739;28;20036;-81
2022/05/13 15:16:54;;;;;;;36.33;5.28;;;;;;;19.89;35.48;100191.78;10586118;28;20487;-78
2022/05/13 15:22:14;;;;;;;8.55;1.42;;;;;;;19.85;36.82;100192.94;10588223;28;20475;-80
2022/05/13 15:27:21;;;;;;;39.47;3.85;;;;;;;19.83;36.59;100201.06;10564070;28;20070;-81
2022/05/13 15:32:24;;;;;;;20.05;2.10;;;;;;;19.70;35.96;100213.53;10566857;28;20043;-79
2022/05/13 15:37:27;;;;;;;5.93;0.90;;;;;;;19.90;35.65;100214.84;10583708;28;20056;-79
2022/05/13 15:42:28;;;;;;;4.28;0.93;;;;;;;19.79;35.98;100222.69;10568168;28;20134;-80
2022/05/13 15:47:31;;;;;;;4.65;0.90;;;;;;;19.35;36.88;100238.00;10562466;28;20039;-79
2022/05/13 15:52:42;;;;;;;4.63;1.02;;;;;;;19.29;37.23;100234.84;10564717;28;20184;-79
2022/05/13 15:57:56;;;;;;;5.65;1.10;;;;;;;19.00;38.81;100231.41;10584302;28;20486;-81
2022/05/13 16:02:59;;;;;;;5.30;0.80;;;;;;;19.17;38.71;100236.53;10586136;28;20036;-80
2022/05/13 16:08:02;;;;;;;3.05;1.00;;;;;;;19.08;37.80;100248.63;10581775;28;20052;-79
2022/05/13 16:13:27;;;;;;;3.08;0.98;;;;;;;18.43;38.18;100248.22;10581981;28;20449;-79
2022/05/13 16:18:32;;;;;;;7.45;1.17;;;;;;;18.43;37.19;100239.38;10566033;28;20071;-78
2022/05/13 16:23:37;;;;;;;4.88;1.00;;;;;;;18.39;38.33;100255.53;10579630;28;20043;-79
2022/05/13 16:28:38;;;;;;;3.63;1.50;;;;;;;18.24;38.36;100248.47;10546055;28;20044;-81
2022/05/13 16:33:40;;;;;;;4.18;0.93;;;;;;;18.08;37.67;100248.53;10557092;28;20047;-81
2022/05/13 16:38:42;;;;;;;6.50;1.95;;;;;;;18.00;39.46;100264.06;10542298;28;20074;-81
2022/05/13 16:43:45;;;;;;;2.83;1.58;;;;;;;17.95;38.86;100266.16;10555457;28;20059;-80
2022/05/13 16:48:46;;;;;;;5.78;2.30;;;;;;;18.05;39.48;100269.97;10539525;28;20139;-80
2022/05/13 16:53:51;;;;;;;3.72;1.20;;;;;;;17.76;40.63;100279.66;10562458;28;20040;-80
2022/05/13 16:58:52;;;;;;;5.28;1.73;;;;;;;17.67;41.43;100287.28;10561114;28;20048;-81
2022/05/13 17:03:54;;;;;;;5.05;2.38;;;;;;;17.49;41.37;100282.06;10539737;28;20052;-79
2022/05/13 17:19:36;;;;;;;4.25;1.50;;;;;;;17.60;42.01;100300.06;10555378;28;20496;-79
2022/05/13 17:24:40;;;;;;;3.70;1.30;;;;;;;17.45;41.26;100306.25;10518397;28;20036;-79
2022/05/13 17:29:44;;;;;;;5.03;0.90;;;;;;;17.50;40.70;100310.34;10552752;28;20048;-80
2022/05/13 17:34:46;;;;;;;5.53;2.08;;;;;;;17.46;41.59;100321.25;10553585;28;20036;-79
2022/05/13 17:39:48;;;;;;;2.83;1.60;;;;;;;17.21;41.45;100324.38;10539709;28;20048;-78
2022/05/13 17:44:49;;;;;;;5.28;1.77;;;;;;;17.07;41.72;100327.78;10563684;28;20401;-79
2022/05/13 17:49:51;;;;;;;5.00;1.40;;;;;;;17.16;41.60;100335.25;10587321;28;20048;-79
2022/05/13 17:54:53;;;;;;;2.85;2.15;;;;;;;16.87;42.36;100328.88;10568598;28;20040;-78
2022/05/13 17:59:55;;;;;;;6.35;1.00;;;;;;;16.98;41.65;100321.16;10554839;28;20138;-78
2022/05/13 18:04:57;;;;;;;2.38;0.70;;;;;;;17.17;41.16;100321.03;10591049;28;20027;-78
2022/05/13 18:09:58;;;;;;;1.95;1.05;;;;;;;16.88;41.53;100334.09;10581063;28;20072;-79
2022/05/13 18:15:02;;;;;;;3.03;2.55;;;;;;;16.79;42.75;100337.22;10538120;28;20386;-79
2022/05/13 18:20:06;;;;;;;2.67;1.10;;;;;;;16.73;42.55;100334.03;10557142;28;20500;-79
2022/05/13 18:25:09;;;;;;;3.80;1.20;;;;;;;16.58;43.54;100333.84;10543306;28;20043;-79
2022/05/13 18:30:11;;;;;;;3.30;1.00;;;;;;;16.48;44.30;100331.78;10535018;28;20051;-78
2022/05/13 18:35:13;;;;;;;3.03;1.08;;;;;;;16.33;44.64;100344.84;10530892;28;20055;-79
2022/05/13 18:50:55;;;;;;;1.92;0.90;;;;;;;15.99;45.02;100361.63;10554645;28;20044;-78
2022/05/13 18:55:57;;;;;;;3.22;0.90;;;;;;;15.91;45.14;100363.78;10558918;28;20468;-78
2022/05/13 19:00:59;;;;;;;3.38;1.00;;;;;;;15.63;45.72;100370.38;10530464;28;20052;-78
2022/05/13 19:06:03;;;;;;;3.50;0.98;;;;;;;15.51;46.13;100373.59;10547640;28;20074;-79
2022/05/13 19:11:06;;;;;;;3.33;0.80;;;;;;;15.41;46.38;100374.09;10552311;28;20055;-78
2022/05/13 19:16:10;;;;;;;5.43;1.20;;;;;;;15.50;46.15;100377.19;10550879;28;20113;-78
2022/05/13 19:21:13;;;;;;;3.10;0.95;;;;;;;15.34;46.50;100379.66;10548005;28;20044;-79
2022/05/13 19:26:16;;;;;;;3.63;1.00;;;;;;;15.13;47.37;100386.78;10513297;28;20471;-78
2022/05/13 19:31:20;;;;;;;2.58;0.70;;;;;;;15.09;47.59;100389.63;10512113;28;20547;-78
2022/05/13 19:36:23;;;;;;;3.28;0.90;;;;;;;15.08;47.70;100385.28;10547373;28;20044;-78
2022/05/13 19:41:25;;;;;;;2.95;1.05;;;;;;;14.85;48.52;100387.16;10551524;28;20044;-79
2022/05/13 19:46:32;;;;;;;2.72;0.98;;;;;;;14.93;48.30;100394.78;10532761;28;20400;-79
2022/05/13 19:51:34;;;;;;;1.63;0.82;;;;;;;14.95;48.35;100392.03;10526732;28;20040;-77
2022/05/13 19:56:42;;;;;;;1.77;0.70;;;;;;;14.81;49.26;100393.50;10526997;28;20048;-79
2022/05/13 20:01:44;;;;;;;3.78;0.90;;;;;;;14.70;48.85;100392.25;10529569;28;20422;-79
2022/05/13 20:12:06;;;;;;;2.22;0.80;;;;;;;14.71;48.26;100389.56;10551997;28;20049;-79
2022/05/13 20:17:09;;;;;;;2.22;0.90;;;;;;;14.58;48.79;100388.34;10569858;28;20052;-83
2022/05/13 20:27:30;;;;;;;2.85;0.88;;;;;;;14.54;48.69;100387.63;10587382;28;20032;-82
2022/05/13 20:32:32;;;;;;;2.85;0.80;;;;;;;14.51;48.97;100387.75;10570709;28;20044;-82
2022/05/13 20:37:34;;;;;;;3.10;0.90;;;;;;;14.56;48.74;100396.34;10570050;28;20039;-80
2022/05/13 20:42:36;;;;;;;2.22;1.10;;;;;;;14.48;49.02;100390.53;10560876;28;20044;-78
2022/05/13 20:47:38;;;;;;;3.47;1.80;;;;;;;14.39;49.64;100397.03;10569196;28;20047;-84
2022/05/13 20:52:40;;;;;;;3.53;1.40;;;;;;;14.17;50.12;100405.94;10559340;28;20554;-81
2022/05/13 20:57:42;;;;;;;3.58;1.70;;;;;;;14.22;49.95;100414.53;10559227;28;20093;-81
2022/05/13 21:02:45;;;;;;;3.35;0.90;;;;;;;14.22;50.01;100406.59;10540491;28;20070;-81
2022/05/13 21:07:49;;;;;;;2.13;0.98;;;;;;;14.11;50.09;100407.88;10558084;28;20078;-82
2022/05/13 21:12:52;;;;;;;2.08;0.80;;;;;;;14.21;49.77;100412.78;10539357;28;20500;-81
2022/05/13 21:17:54;;;;;;;2.17;0.80;;;;;;;14.18;49.57;100405.84;10554243;28;20066;-81
2022/05/13 21:22:55;;;;;;;2.60;1.00;;;;;;;14.16;49.89;100409.47;10552200;28;20063;-82
2022/05/13 21:27:57;;;;;;;3.10;1.27;;;;;;;14.20;49.62;100414.56;10551952;28;20044;-81
2022/05/13 21:38:19;;;;;;;3.03;0.90;;;;;;;14.16;49.81;100412.13;10559361;28;20443;-82
2022/05/13 21:43:20;;;;;;;1.35;0.80;;;;;;;14.12;49.83;100414.91;10551963;28;20048;-79
2022/05/13 21:48:22;;;;;;;3.33;0.90;;;;;;;13.98;50.15;100422.50;10544656;28;20069;-79
2022/05/13 21:53:24;;;;;;;3.72;1.20;;;;;;;13.86;51.11;100423.84;10576406;28;20044;-81
2022/05/13 21:58:26;;;;;;;2.80;1.13;;;;;;;13.96;50.28;100427.00;10579691;28;20071;-77
2022/05/13 22:03:29;;;;;;;3.53;1.10;;;;;;;13.93;51.06;100423.59;10559308;28;20549;-80
2022/05/13 22:08:30;;;;;;;5.75;1.20;;;;;;;14.00;50.08;100422.47;10561376;28;20055;-79
2022/05/13 22:13:32;;;;;;;7.65;1.05;;;;;;;13.83;50.91;100431.03;10569068;28;20108;-81
2022/05/13 22:18:33;;;;;;;3.83;1.00;;;;;;;13.77;51.07;100440.06;10565741;28;20044;-82
2022/05/13 22:23:36;;;;;;;5.78;1.67;;;;;;;13.81;50.88;100438.16;10565745;28;20040;-80
2022/05/13 22:28:37;;;;;;;3.05;1.10;;;;;;;13.63;52.19;100443.25;10547223;28;20078;-80
2022/05/13 22:33:39;;;;;;;3.20;1.13;;;;;;;13.43;52.61;100445.75;10547083;28;20046;-80
2022/05/13 22:38:41;;;;;;;2.85;1.10;;;;;;;13.22;53.22;100443.88;10543958;28;20063;-80
2022/05/13 22:43:42;;;;;;;2.17;1.13;;;;;;;13.31;53.91;100446.19;10570650;28;20085;-81
2022/05/13 22:48:44;;;;;;;2.15;1.10;;;;;;;13.05;54.34;100450.59;10572879;28;20103;-82
2022/05/13 22:53:46;;;;;;;4.63;1.60;;;;;;;12.85;54.90;100448.66;10544301;28;20583;-82
2022/05/13 22:58:47;;;;;;;2.67;0.82;;;;;;;12.89;54.94;100444.16;10537954;28;20055;-81
2022/05/13 23:03:49;;;;;;;3.03;1.13;;;;;;;12.69;55.38;100442.19;10554628;28;20040;-81
2022/05/13 23:14:11;;;;;;;3.38;1.25;;;;;;;12.45;57.25;100438.59;10553862;28;20035;-81
2022/05/13 23:19:14;;;;;;;2.97;1.30;;;;;;;12.48;57.02;100435.84;10553398;28;20097;-81
2022/05/13 23:24:16;;;;;;;5.13;1.52;;;;;;;12.45;57.39;100429.84;10535912;28;20048;-82
2022/05/13 23:29:17;;;;;;;5.43;1.60;;;;;;;12.36;58.19;100421.31;10535018;28;20416;-81
2022/05/13 23:34:19;;;;;;;5.38;1.80;;;;;;;12.25;58.59;100428.69;10518909;28;20052;-81
2022/05/13 23:39:20;;;;;;;3.67;1.50;;;;;;;12.21;58.78;100424.44;10535546;28;20492;-82
2022/05/13 23:44:22;;;;;;;2.72;1.60;;;;;;;12.29;59.80;100424.19;10554085;28;20036;-81
2022/05/13 23:49:23;;;;;;;4.43;1.77;;;;;;;11.99;60.41;100421.63;10564546;28;20105;-80
2022/05/13 23:59:56;;;;;;;3.42;1.70;;;;;;;11.97;60.90;100419.97;10478459;28;20052;-79
